首页
METAR-TAF:

METAR-TAF

机场 :

空军基地

Solenzara, 法国

纬度: 41-55N, 经度: 009-24E, 海拔: 8米

当前天气观测

该预报发布于40分钟前的10:00 UTC
风速3节,风向北转东北,在北转西北之间变化
温度 16°C
湿度 68%
气压 1011 hPa
能见度10公里或以上
少量云层高于8200英尺
散云层高于16000英尺

METAR: LFKS 221000Z AUTO 03003KT 330V080 9999 FEW082 SCT160 16/10 Q1011

时间: 11:40 (10:40 UTC)

预报

该预报发布于2小时和40分钟前的08:00 UTC
预报有效从22日的 09点(UTC)到 23日的 09点(UTC)
风速10节,风向
能见度10公里或以上
少量云层高于3000英尺
多云层高于18000英尺
成为
从 22日的 14点(UTC)到 22日的 16点(UTC)
多云层高于3000英尺, 塔状积云.
多云层高于9000英尺
短暂存在
从 22日的 16点(UTC)到 23日的 09点(UTC)
能見度: 4000
散云层高于1500英尺
多云层高于3000英尺, 塔状积云.
小阵雨

TAF: LFKS 220800Z 2209/2309 17010KT 9999 FEW030 BKN180 BECMG 2214/2216 BKN030TCU BKN090 TEMPO 2216/2309 4000 -SHRA SCT015 BKN030TCU

超过4000个机场的气象观测和天气预报(METAR&TAF报告)。

可查询的气象台以黄色和红色小点在地图上表示。

将鼠标移到小点上方,可查看气象台名称。

然后点击查看天气观测和预报。

如需切换地图:点击带黑十字的绿色按钮放大地图;点击带横线的绿色按钮缩小地图;或者点击绿色箭头查看邻近地区的地图。


METAR-TAF: